Time;durP1;ratioP1;P1;durP2;ratioP2;P2;SDS_P1;SDS_P2;PMS_P1;PMS_P2;Temp;Humidity;BMP_temperature;BMP_pressure;BME280_temperature;BME280_humidity;BME280_pressure;Samples;Min_cycle;Max_cycle;Signal;HPM_P1;HPM_P2
2023/06/20 00:00:08;;;;;;;14.40;10.20;;;;;;;20.99;58.43;100365.73;105310;1256;64154;-58
2023/06/20 00:02:36;;;;;;;13.40;11.00;;;;;;;20.92;58.58;100367.48;105199;1254;60671;-56
2023/06/20 00:05:05;;;;;;;14.10;10.80;;;;;;;20.88;58.80;100369.37;105379;1257;60446;-56
2023/06/20 00:07:33;;;;;;;13.60;10.70;;;;;;;20.88;58.95;100371.11;105443;1254;63656;-57
2023/06/20 00:10:00;;;;;;;13.70;10.40;;;;;;;20.91;58.83;100368.71;105457;1260;61385;-57
2023/06/20 00:12:28;;;;;;;13.80;10.80;;;;;;;20.93;58.96;100369.48;105332;1254;63853;-57
2023/06/20 00:14:56;;;;;;;13.00;10.60;;;;;;;20.93;58.81;100370.57;105399;1254;61630;-58
2023/06/20 00:17:25;;;;;;;13.50;10.10;;;;;;;20.92;58.81;100372.09;106366;1254;60498;-58
2023/06/20 00:19:53;;;;;;;13.70;10.50;;;;;;;20.93;58.88;100369.70;105341;1254;64952;-56
2023/06/20 00:22:21;;;;;;;16.70;11.20;;;;;;;20.93;59.07;100364.70;105400;1254;61449;-58
2023/06/20 00:24:49;;;;;;;14.50;10.90;;;;;;;20.90;59.05;100361.33;105490;1254;63757;-57
2023/06/20 00:27:16;;;;;;;13.60;11.20;;;;;;;20.85;58.98;100359.77;105346;1254;60386;-58
2023/06/20 00:29:44;;;;;;;13.60;10.10;;;;;;;20.82;58.92;100360.73;105479;1256;60552;-57
2023/06/20 00:32:12;;;;;;;13.70;10.80;;;;;;;20.77;59.00;100358.75;105287;1259;63632;-58
2023/06/20 00:34:39;;;;;;;13.20;10.40;;;;;;;20.70;59.19;100359.90;105390;1254;60653;-58
2023/06/20 00:37:07;;;;;;;13.30;10.40;;;;;;;20.62;59.37;100359.93;105330;1254;63711;-58
2023/06/20 00:39:35;;;;;;;14.10;11.20;;;;;;;20.59;59.67;100356.55;105534;1257;60555;-59
2023/06/20 00:42:04;;;;;;;13.30;11.30;;;;;;;20.59;59.67;100357.91;105392;1256;60649;-57
2023/06/20 00:44:32;;;;;;;14.80;11.10;;;;;;;20.58;59.63;100355.89;105464;1257;64948;-56
2023/06/20 00:46:59;;;;;;;13.00;10.00;;;;;;;20.54;59.67;100355.59;105311;1254;70330;-57
2023/06/20 00:49:27;;;;;;;14.60;11.00;;;;;;;20.50;59.84;100354.97;105361;1259;62458;-56
2023/06/20 00:51:54;;;;;;;13.60;11.40;;;;;;;20.51;60.06;100358.23;105295;1259;60440;-56
2023/06/20 00:54:22;;;;;;;14.20;11.10;;;;;;;20.52;60.02;100356.52;105328;1253;60520;-57
2023/06/20 00:56:50;;;;;;;12.20;10.00;;;;;;;20.50;59.95;100355.17;105889;1255;64963;-58
2023/06/20 00:59:17;;;;;;;13.70;11.50;;;;;;;20.48;59.78;100355.59;105517;1257;61369;-57
2023/06/20 01:01:45;;;;;;;15.80;11.40;;;;;;;20.48;59.84;100356.95;105319;1254;63907;-57
2023/06/20 01:04:13;;;;;;;18.60;11.10;;;;;;;20.49;59.97;100356.67;105513;1257;60950;-58
2023/06/20 01:07:02;;;;;;;13.30;11.30;;;;;;;20.49;60.05;100355.65;105290;1253;60354;-58
2023/06/20 01:09:44;;;;;;;16.40;11.90;;;;;;;20.53;60.19;100358.58;105684;1254;65043;-61
2023/06/20 01:12:41;;;;;;;13.80;10.90;;;;;;;20.56;60.46;100360.59;105245;1259;61459;-58
2023/06/20 01:15:31;;;;;;;15.10;10.30;;;;;;;20.63;60.46;100363.39;105306;1257;63685;-58
2023/06/20 01:18:36;;;;;;;14.30;10.40;;;;;;;20.64;60.43;100360.83;106000;1254;60549;-58
2023/06/20 01:21:08;;;;;;;13.20;10.80;;;;;;;20.61;60.17;100361.80;105559;1253;60486;-59
2023/06/20 01:23:46;;;;;;;16.60;12.40;;;;;;;20.60;60.21;100361.55;105976;1256;69805;-58
2023/06/20 01:26:20;;;;;;;15.00;11.20;;;;;;;20.60;60.12;100361.50;105338;1258;61471;-57
2023/06/20 01:28:51;;;;;;;12.60;10.80;;;;;;;20.60;60.16;100359.64;105628;1257;64271;-59
2023/06/20 01:31:24;;;;;;;12.60;10.20;;;;;;;20.61;60.34;100361.50;105602;1254;60509;-59
2023/06/20 01:34:00;;;;;;;13.30;11.70;;;;;;;20.64;60.36;100362.75;105459;1252;61652;-58
2023/06/20 01:36:33;;;;;;;15.00;11.40;;;;;;;20.65;60.49;100363.38;105330;1254;65477;-59
2023/06/20 01:39:04;;;;;;;14.70;11.20;;;;;;;20.62;60.62;100361.73;105618;1256;61472;-58
2023/06/20 01:41:31;;;;;;;13.20;11.30;;;;;;;20.57;60.68;100360.89;105366;1254;64618;-59
2023/06/20 01:43:59;;;;;;;15.80;11.10;;;;;;;20.52;60.72;100361.16;105356;1257;60831;-59
2023/06/20 01:46:26;;;;;;;14.90;11.40;;;;;;;20.47;60.56;100361.76;105313;1254;60456;-60
2023/06/20 01:48:54;;;;;;;13.60;11.60;;;;;;;20.42;60.79;100364.70;105266;1252;63683;-60
2023/06/20 01:51:22;;;;;;;13.20;11.30;;;;;;;20.38;60.79;100358.86;105395;1254;61353;-60
2023/06/20 01:53:49;;;;;;;12.80;11.00;;;;;;;20.36;60.89;100360.58;105375;1254;63820;-59
2023/06/20 01:56:17;;;;;;;15.30;11.70;;;;;;;20.34;60.82;100361.53;105356;1261;60550;-58
2023/06/20 01:58:45;;;;;;;15.30;11.80;;;;;;;20.31;60.88;100366.26;105235;1254;60506;-60
2023/06/20 02:01:13;;;;;;;13.00;10.80;;;;;;;20.26;60.97;100365.25;105527;1254;64937;-57
2023/06/20 02:03:41;;;;;;;14.50;11.90;;;;;;;20.22;60.93;100366.94;105261;1260;60502;-58
2023/06/20 02:06:10;;;;;;;16.20;11.50;;;;;;;20.20;60.96;100367.65;105314;1254;62484;-57
2023/06/20 02:08:38;;;;;;;14.70;12.90;;;;;;;20.20;61.08;100368.80;104894;1257;388745;-58
2023/06/20 02:24:21;;;;;;;16.80;12.60;;;;;;;20.33;61.40;100378.56;102972;1288;604916;-60
2023/06/20 02:26:49;;;;;;;14.80;12.60;;;;;;;20.81;60.12;100389.50;104166;1269;104271;-58
2023/06/20 02:29:17;;;;;;;16.80;13.10;;;;;;;20.73;59.43;100393.59;104369;1274;59292;-60
2023/06/20 02:31:48;;;;;;;17.20;13.80;;;;;;;20.55;59.36;100395.46;104223;1266;63317;-57
2023/06/20 02:34:18;;;;;;;15.40;12.40;;;;;;;20.39;59.55;100393.77;105375;1266;61933;-58
2023/06/20 02:36:46;;;;;;;16.60;13.70;;;;;;;20.23;59.88;100394.77;104472;1267;62566;-60
2023/06/20 02:39:14;;;;;;;15.70;13.60;;;;;;;20.11;60.04;100397.85;104693;1267;59377;-60
2023/06/20 02:41:42;;;;;;;16.20;13.60;;;;;;;20.02;60.36;100405.71;104709;1263;59346;-62
2023/06/20 02:44:09;;;;;;;15.50;12.80;;;;;;;19.97;60.57;100408.19;104761;1267;63328;-62
2023/06/20 02:46:59;;;;;;;15.50;13.60;;;;;;;19.93;60.66;100410.98;104731;1264;61331;-65
2023/06/20 02:50:00;;;;;;;14.40;12.70;;;;;;;19.89;60.99;100415.63;104843;1267;63777;-62
2023/06/20 02:52:49;;;;;;;14.50;13.00;;;;;;;19.86;61.08;100423.94;104763;1263;60413;-62
2023/06/20 02:55:28;;;;;;;14.70;12.00;;;;;;;19.85;61.26;100428.98;104678;1263;59813;-57
2023/06/20 02:57:58;;;;;;;14.70;12.50;;;;;;;19.84;61.13;100429.85;104695;1265;64091;-58
2023/06/20 03:00:26;;;;;;;14.60;12.10;;;;;;;19.81;61.11;100432.36;104889;1264;61340;-58
2023/06/20 03:03:06;;;;;;;14.80;12.50;;;;;;;19.81;61.53;100432.48;104410;1266;63771;-59
2023/06/20 03:05:36;;;;;;;15.20;11.90;;;;;;;19.85;61.51;100429.17;104802;1263;59708;-58
2023/06/20 03:08:04;;;;;;;14.20;12.30;;;;;;;19.87;61.47;100427.89;104604;1263;59830;-58
2023/06/20 03:10:32;;;;;;;14.80;12.70;;;;;;;19.92;61.29;100431.27;104884;1264;64136;-59
2023/06/20 03:13:02;;;;;;;15.30;12.60;;;;;;;19.99;61.01;100429.83;108508;1263;61387;-61
2023/06/20 03:15:30;;;;;;;16.40;11.30;;;;;;;20.02;60.90;100423.13;104884;1270;62469;-59
2023/06/20 03:18:01;;;;;;;14.20;12.40;;;;;;;19.99;60.97;100416.69;104452;1263;60500;-59
2023/06/20 03:20:29;;;;;;;15.30;12.50;;;;;;;19.98;61.33;100420.08;104876;1269;59638;-59
2023/06/20 03:22:57;;;;;;;14.20;12.60;;;;;;;19.98;61.44;100428.61;104530;1264;64078;-59
2023/06/20 03:25:24;;;;;;;15.30;12.00;;;;;;;20.03;61.59;100431.89;104759;1269;60103;-60
2023/06/20 03:27:53;;;;;;;15.00;12.50;;;;;;;20.04;61.48;100425.74;104544;1264;63744;-65
2023/06/20 03:30:21;;;;;;;13.60;11.60;;;;;;;20.04;61.41;100426.98;104531;1266;62186;-62
2023/06/20 03:32:49;;;;;;;15.30;13.00;;;;;;;20.09;61.50;100431.04;104566;1269;59574;-57
2023/06/20 03:35:18;;;;;;;17.10;12.20;;;;;;;20.12;61.29;100432.39;105254;1258;64065;-59
2023/06/20 03:37:45;;;;;;;15.10;12.80;;;;;;;20.13;61.20;100432.78;104869;1265;60177;-57
2023/06/20 03:40:14;;;;;;;16.10;13.00;;;;;;;20.14;61.30;100431.61;104989;1263;63761;-59
2023/06/20 03:42:43;;;;;;;16.00;13.30;;;;;;;20.15;61.36;100436.48;104794;1261;59752;-59
2023/06/20 03:45:12;;;;;;;16.40;14.10;;;;;;;20.15;61.53;100441.36;105000;1264;59725;-61
2023/06/20 03:47:40;;;;;;;14.70;13.00;;;;;;;20.13;61.53;100440.83;104970;1260;64079;-59
2023/06/20 03:50:08;;;;;;;16.80;12.40;;;;;;;20.12;61.56;100440.64;104887;1260;61920;-58
2023/06/20 03:52:36;;;;;;;15.40;13.00;;;;;;;20.15;61.70;100441.35;104888;1261;63723;-61
2023/06/20 03:55:04;;;;;;;14.60;12.20;;;;;;;20.20;61.66;100446.04;104914;1263;59768;-58
2023/06/20 03:57:33;;;;;;;15.00;12.90;;;;;;;20.25;61.75;100449.96;104927;1266;59731;-58
2023/06/20 04:00:04;;;;;;;15.00;12.90;;;;;;;20.27;61.63;100453.77;104714;1265;64126;-59
2023/06/20 04:02:44;;;;;;;17.70;13.40;;;;;;;20.28;61.73;100459.71;105055;1262;60100;-60
2023/06/20 04:05:12;;;;;;;15.80;13.90;;;;;;;20.29;61.61;100459.96;104687;1264;62517;-59
2023/06/20 04:07:42;;;;;;;16.30;13.70;;;;;;;20.30;61.83;100458.38;105014;1263;60621;-59
2023/06/20 04:10:12;;;;;;;16.20;14.00;;;;;;;20.36;61.89;100463.17;105198;1259;59658;-58
2023/06/20 04:12:40;;;;;;;15.10;13.30;;;;;;;20.47;61.45;100468.80;104843;1260;63034;-59
2023/06/20 04:15:08;;;;;;;16.00;13.10;;;;;;;20.56;61.15;100472.89;104943;1264;60101;-55
2023/06/20 04:17:37;;;;;;;16.00;13.60;;;;;;;20.60;60.92;100473.79;105858;1260;63789;-59
2023/06/20 04:20:14;;;;;;;16.50;13.10;;;;;;;20.64;60.97;100471.69;105056;1260;59785;-58
2023/06/20 04:22:45;;;;;;;16.20;13.10;;;;;;;20.69;61.12;100468.52;105112;1265;60037;-59
2023/06/20 04:25:14;;;;;;;17.10;13.70;;;;;;;20.74;61.14;100469.89;104933;1264;62895;-58
2023/06/20 04:27:43;;;;;;;15.80;13.30;;;;;;;20.82;60.93;100475.84;105362;1258;61488;-61
2023/06/20 04:30:11;;;;;;;15.10;13.50;;;;;;;20.90;60.61;100473.08;104969;1264;63701;-59
2023/06/20 04:32:41;;;;;;;18.20;12.50;;;;;;;20.97;60.49;100471.52;105071;1260;59816;-66
2023/06/20 04:35:10;;;;;;;15.40;13.70;;;;;;;21.05;60.44;100479.67;104772;1263;59732;-60
2023/06/20 04:37:40;;;;;;;16.50;13.90;;;;;;;21.10;60.31;100487.27;104880;1260;62905;-60
2023/06/20 04:40:11;;;;;;;16.20;13.50;;;;;;;21.12;60.12;100490.00;105336;1256;62025;-60
2023/06/20 04:42:39;;;;;;;16.50;14.30;;;;;;;21.20;60.34;100488.48;105289;1260;63756;-63
2023/06/20 04:45:08;;;;;;;17.60;14.40;;;;;;;21.36;60.25;100481.71;105273;1258;59583;-61
2023/06/20 04:47:36;;;;;;;15.80;14.00;;;;;;;21.46;59.54;100480.98;108682;1256;59395;-60
2023/06/20 04:50:04;;;;;;;14.90;13.00;;;;;;;21.53;59.21;100480.75;105149;1256;64067;-60
2023/06/20 04:52:32;;;;;;;19.00;13.30;;;;;;;21.57;59.41;100484.63;107020;1257;61349;-62
2023/06/20 04:55:02;;;;;;;16.80;14.30;;;;;;;21.63;59.55;100491.67;105200;1259;62531;-61
2023/06/20 04:57:30;;;;;;;16.00;13.40;;;;;;;21.75;59.39;100495.93;105448;1260;59785;-61
2023/06/20 04:59:58;;;;;;;15.20;13.50;;;;;;;21.85;59.00;100498.61;105204;1256;60366;-61
2023/06/20 05:02:26;;;;;;;17.30;14.20;;;;;;;21.92;58.82;100495.08;105155;1257;62834;-62
2023/06/20 05:04:54;;;;;;;16.10;13.20;;;;;;;21.96;58.15;100491.14;105104;1257;61797;-60
2023/06/20 05:07:22;;;;;;;16.00;13.80;;;;;;;21.98;58.16;100494.63;105303;1262;62573;-60
2023/06/20 05:09:50;;;;;;;16.70;14.90;;;;;;;22.05;58.38;100494.67;105163;1256;59737;-60
2023/06/20 05:12:18;;;;;;;16.50;14.10;;;;;;;22.17;58.12;100493.39;105042;1255;59932;-59
2023/06/20 05:14:45;;;;;;;16.60;13.70;;;;;;;22.30;57.63;100494.77;104895;1258;64097;-60
2023/06/20 05:17:13;;;;;;;15.90;14.20;;;;;;;22.41;57.29;100497.11;104874;1257;61527;-60
2023/06/20 05:19:41;;;;;;;17.50;14.40;;;;;;;22.44;57.10;100496.14;104840;1257;63742;-61
2023/06/20 05:22:08;;;;;;;17.90;14.90;;;;;;;22.45;56.97;100498.70;104813;1260;59859;-59
2023/06/20 05:24:36;;;;;;;16.90;14.80;;;;;;;22.49;56.77;100498.94;105065;1262;59644;-59
2023/06/20 05:27:04;;;;;;;18.70;14.80;;;;;;;22.56;56.43;100497.59;105281;1257;64287;-59
2023/06/20 05:29:31;;;;;;;16.10;14.50;;;;;;;22.63;56.10;100494.75;105123;1257;70108;-59
2023/06/20 05:31:59;;;;;;;17.20;14.20;;;;;;;22.68;56.40;100494.20;105288;1259;63830;-59
2023/06/20 05:34:27;;;;;;;19.90;14.60;;;;;;;22.75;56.48;100495.92;105203;1260;59758;-60
2023/06/20 05:36:54;;;;;;;17.40;14.20;;;;;;;22.85;56.21;100497.20;105232;1257;59752;-59
2023/06/20 05:39:22;;;;;;;16.20;13.80;;;;;;;22.91;56.00;100492.67;105017;1257;64086;-60
2023/06/20 05:41:49;;;;;;;16.90;13.40;;;;;;;22.97;55.97;100493.27;105155;1257;61442;-59
2023/06/20 05:44:17;;;;;;;15.80;13.90;;;;;;;23.05;55.68;100493.67;104997;1257;63947;-60
2023/06/20 05:46:45;;;;;;;15.10;13.50;;;;;;;23.14;55.68;100496.16;105002;1262;59897;-59
2023/06/20 05:49:14;;;;;;;15.40;13.10;;;;;;;23.24;55.62;100494.06;104829;1258;59739;-60
2023/06/20 05:51:44;;;;;;;14.50;13.00;;;;;;;23.32;55.25;100497.55;105055;1258;62869;-58
2023/06/20 05:54:12;;;;;;;15.80;13.70;;;;;;;23.42;54.88;100501.11;105221;1262;61368;-65
2023/06/20 05:56:40;;;;;;;14.40;12.60;;;;;;;23.50;54.54;100502.33;105228;1257;63790;-64
2023/06/20 05:59:08;;;;;;;14.90;12.50;;;;;;;23.62;53.91;100496.79;105068;1260;59743;-58
2023/06/20 06:01:35;;;;;;;14.70;12.90;;;;;;;23.74;53.51;100497.63;105401;1257;59756;-58
2023/06/20 06:04:03;;;;;;;16.20;13.90;;;;;;;23.83;53.72;100498.52;105243;1262;64077;-57
2023/06/20 06:06:31;;;;;;;16.50;13.50;;;;;;;23.91;53.24;100495.13;105320;1257;61339;-60
2023/06/20 06:08:59;;;;;;;15.20;13.00;;;;;;;23.96;52.63;100495.52;105124;1262;62512;-58
2023/06/20 06:11:26;;;;;;;15.70;12.60;;;;;;;23.99;52.23;100498.52;105123;1259;59764;-60
2023/06/20 06:13:54;;;;;;;15.20;13.60;;;;;;;24.01;52.40;100502.84;105154;1259;59559;-58
2023/06/20 06:16:21;;;;;;;14.80;13.10;;;;;;;24.05;52.31;100500.94;105100;1262;64122;-60
2023/06/20 06:18:52;;;;;;;16.50;14.30;;;;;;;24.08;52.52;100497.13;105414;1256;61369;-57
2023/06/20 06:21:20;;;;;;;16.00;13.40;;;;;;;24.14;52.42;100495.55;105395;1257;63727;-57
2023/06/20 06:23:48;;;;;;;15.40;13.10;;;;;;;24.22;52.25;100493.63;105318;1257;59760;-58
2023/06/20 06:26:16;;;;;;;15.30;13.50;;;;;;;24.29;51.69;100496.80;105340;1257;59730;-58
2023/06/20 06:28:43;;;;;;;17.00;13.10;;;;;;;24.36;51.06;100497.48;106335;1262;64155;-59
2023/06/20 06:31:14;;;;;;;19.30;13.50;;;;;;;24.40;51.30;100502.77;105213;1258;61370;-59
2023/06/20 06:33:42;;;;;;;15.20;13.40;;;;;;;24.47;51.04;100498.49;105259;1259;63749;-56
2023/06/20 06:36:09;;;;;;;16.20;13.10;;;;;;;24.54;50.72;100491.94;105245;1259;60527;-57
2023/06/20 06:38:37;;;;;;;15.10;13.10;;;;;;;24.62;50.48;100496.07;105271;1260;60457;-57
2023/06/20 06:41:06;;;;;;;14.90;13.00;;;;;;;24.70;50.43;100497.31;105190;1257;64898;-59
2023/06/20 06:43:34;;;;;;;15.60;12.60;;;;;;;24.77;50.08;100498.61;105600;1256;61424;-57
2023/06/20 06:46:01;;;;;;;16.60;14.50;;;;;;;24.85;50.04;100498.63;105050;1260;63784;-55
2023/06/20 06:48:29;;;;;;;15.50;13.90;;;;;;;24.93;50.22;100498.37;105341;1260;60574;-56
2023/06/20 06:50:57;;;;;;;15.60;12.70;;;;;;;25.02;50.01;100497.66;105297;1262;60461;-56
2023/06/20 06:53:25;;;;;;;15.90;12.40;;;;;;;25.11;49.90;100490.96;105600;1260;64902;-56
2023/06/20 06:55:54;;;;;;;15.60;13.00;;;;;;;25.17;49.68;100488.52;105147;1259;61336;-55
2023/06/20 06:58:21;;;;;;;17.80;12.10;;;;;;;25.26;49.69;100487.30;105156;1257;64876;-55
2023/06/20 07:00:49;;;;;;;16.20;13.00;;;;;;;25.35;49.50;100483.20;105368;1257;60457;-56
2023/06/20 07:03:16;;;;;;;14.10;12.60;;;;;;;25.44;48.91;100481.18;105162;1257;60450;-56
2023/06/20 07:05:44;;;;;;;14.80;12.30;;;;;;;25.52;47.73;100481.08;105185;1257;65004;-56
2023/06/20 07:08:11;;;;;;;14.90;12.90;;;;;;;25.60;47.62;100479.33;105123;1259;61392;-57
2023/06/20 07:10:39;;;;;;;13.60;11.80;;;;;;;25.67;47.25;100480.27;105119;1260;63785;-59
2023/06/20 07:13:06;;;;;;;15.60;11.90;;;;;;;25.75;46.76;100476.95;105075;1259;60543;-58
2023/06/20 07:15:34;;;;;;;13.60;12.20;;;;;;;25.83;46.35;100475.69;105016;1259;60629;-56
2023/06/20 07:18:02;;;;;;;12.40;11.10;;;;;;;25.89;46.09;100475.22;105276;1262;64940;-58
2023/06/20 07:20:29;;;;;;;14.60;12.30;;;;;;;25.94;46.26;100470.61;105119;1262;60465;-57
2023/06/20 07:22:57;;;;;;;14.80;10.70;;;;;;;26.03;45.89;100472.91;105067;1256;63694;-61
2023/06/20 07:25:24;;;;;;;13.00;10.80;;;;;;;26.12;45.17;100471.03;105315;1260;60473;-58
2023/06/20 07:27:52;;;;;;;15.70;11.60;;;;;;;26.21;45.24;100471.28;105373;1257;60542;-57
2023/06/20 07:30:20;;;;;;;12.70;10.20;;;;;;;26.29;45.08;100472.77;105267;1257;64924;-58
2023/06/20 07:32:48;;;;;;;15.50;12.20;;;;;;;26.37;45.22;100475.70;105225;1260;61402;-57
2023/06/20 07:35:16;;;;;;;14.20;11.70;;;;;;;26.44;45.46;100469.42;105276;1262;62441;-56
2023/06/20 07:37:44;;;;;;;26.30;12.40;;;;;;;26.50;45.74;100465.37;105222;1257;60896;-58
2023/06/20 07:40:11;;;;;;;13.60;11.90;;;;;;;26.56;45.60;100462.02;105172;1262;60441;-59
2023/06/20 07:42:39;;;;;;;14.80;10.80;;;;;;;26.64;44.53;100465.55;105212;1262;64938;-58
2023/06/20 07:45:07;;;;;;;14.40;11.90;;;;;;;26.72;44.42;100460.02;105410;1260;62783;-58
2023/06/20 07:47:35;;;;;;;12.50;11.20;;;;;;;26.79;44.51;100463.47;105137;1257;63691;-57
2023/06/20 07:50:03;;;;;;;15.30;11.80;;;;;;;26.86;43.37;100459.71;105253;1257;60571;-58
2023/06/20 07:52:32;;;;;;;13.80;11.80;;;;;;;26.93;42.98;100459.50;105252;1260;60619;-56
2023/06/20 07:55:01;;;;;;;13.20;10.80;;;;;;;26.97;42.75;100462.92;105274;1262;65063;-56
2023/06/20 07:57:34;;;;;;;13.20;10.30;;;;;;;26.99;41.99;100462.64;105146;1257;61364;-59
2023/06/20 08:00:12;;;;;;;13.30;11.40;;;;;;;27.03;42.19;100455.61;105116;1257;63769;-55
2023/06/20 08:02:39;;;;;;;18.40;11.80;;;;;;;27.09;42.38;100456.85;105126;1259;60553;-57
2023/06/20 08:05:08;;;;;;;11.70;9.90;;;;;;;27.15;41.92;100455.21;105062;1258;60400;-57
2023/06/20 08:07:36;;;;;;;13.60;10.10;;;;;;;27.20;41.11;100455.73;105243;1262;64937;-57
2023/06/20 08:10:05;;;;;;;13.00;9.90;;;;;;;27.26;40.77;100453.77;105206;1260;61377;-58
2023/06/20 08:12:33;;;;;;;12.20;10.00;;;;;;;27.31;40.45;100456.95;105307;1257;63741;-57
2023/06/20 08:15:01;;;;;;;13.40;10.50;;;;;;;27.35;40.09;100455.52;105238;1257;60498;-58
2023/06/20 08:17:28;;;;;;;13.40;10.80;;;;;;;27.40;40.59;100454.52;105217;1257;60540;-55
2023/06/20 08:19:59;;;;;;;14.20;11.80;;;;;;;27.46;41.88;100455.86;105042;1262;64916;-56
2023/06/20 08:22:27;;;;;;;15.20;10.90;;;;;;;27.51;42.29;100456.36;105411;1258;61294;-53
2023/06/20 08:24:54;;;;;;;12.40;11.00;;;;;;;27.56;41.51;100456.05;105101;1259;63686;-54
2023/06/20 08:27:22;;;;;;;14.80;10.90;;;;;;;27.62;41.50;100451.38;105132;1262;60472;-54
2023/06/20 08:29:49;;;;;;;12.50;11.10;;;;;;;27.70;41.79;100451.88;105082;1258;60579;-55
2023/06/20 08:32:17;;;;;;;12.90;11.50;;;;;;;27.76;41.63;100449.80;105159;1260;65241;-57
2023/06/20 08:34:48;;;;;;;13.60;11.40;;;;;;;27.79;41.59;100448.31;105288;1260;61509;-60
2023/06/20 08:37:21;;;;;;;13.10;11.60;;;;;;;27.80;41.19;100448.16;105243;1262;63685;-58
2023/06/20 08:39:49;;;;;;;17.60;11.90;;;;;;;27.79;40.86;100450.26;105209;1257;60703;-57
2023/06/20 08:42:17;;;;;;;14.90;11.10;;;;;;;27.80;41.49;100446.01;105258;1258;60566;-58
2023/06/20 08:44:44;;;;;;;14.70;11.40;;;;;;;27.84;41.20;100447.23;105086;1258;63702;-57
2023/06/20 08:47:24;;;;;;;12.60;11.00;;;;;;;27.87;40.97;100442.30;105267;1257;61380;-56
2023/06/20 08:49:52;;;;;;;14.70;11.80;;;;;;;27.88;41.47;100441.03;105432;1257;64242;-56
2023/06/20 08:52:29;;;;;;;12.30;10.90;;;;;;;27.89;41.68;100435.73;104944;1260;60602;-54
2023/06/20 08:54:57;;;;;;;14.00;10.30;;;;;;;27.92;42.37;100434.56;105265;1261;60368;-55
2023/06/20 08:57:25;;;;;;;13.70;11.20;;;;;;;27.96;42.18;100432.46;105320;1257;74065;-56
2023/06/20 08:59:53;;;;;;;12.70;10.80;;;;;;;28.00;41.82;100432.73;105145;1260;61534;-55
2023/06/20 09:02:21;;;;;;;14.70;10.00;;;;;;;28.04;40.79;100431.86;105202;1260;64233;-55
2023/06/20 09:05:05;;;;;;;16.10;10.70;;;;;;;28.12;39.83;100432.88;105171;1262;60648;-57
2023/06/20 09:07:34;;;;;;;13.40;11.90;;;;;;;28.20;39.90;100434.56;105341;1262;60521;-54
2023/06/20 09:10:02;;;;;;;15.90;12.90;;;;;;;28.26;41.38;100435.02;105130;1262;65069;-54
2023/06/20 09:13:03;;;;;;;19.60;13.20;;;;;;;28.29;41.46;100436.73;105350;1260;61398;-56
2023/06/20 09:15:30;;;;;;;14.10;11.70;;;;;;;28.32;42.27;100434.59;104886;1262;63753;-55
2023/06/20 09:18:01;;;;;;;14.20;12.80;;;;;;;28.37;42.65;100430.80;105267;1262;60450;-55
2023/06/20 09:20:30;;;;;;;13.60;11.90;;;;;;;28.41;42.84;100432.66;105384;1260;60537;-55
2023/06/20 09:22:58;;;;;;;16.10;12.40;;;;;;;28.46;42.34;100429.80;105338;1262;63609;-55
2023/06/20 09:25:30;;;;;;;15.10;13.30;;;;;;;28.50;41.25;100430.73;105327;1262;64195;-56
2023/06/20 09:27:58;;;;;;;14.20;11.20;;;;;;;28.50;40.91;100427.48;105201;1261;63776;-60
2023/06/20 09:30:30;;;;;;;16.70;12.80;;;;;;;28.50;41.11;100426.73;105234;1257;60558;-56
2023/06/20 09:33:03;;;;;;;19.70;13.80;;;;;;;28.52;41.05;100423.40;104856;1263;60438;-55
2023/06/20 09:35:31;;;;;;;13.20;11.60;;;;;;;28.53;40.80;100419.88;105906;1258;63681;-56
2023/06/20 09:38:02;;;;;;;12.30;10.90;;;;;;;28.60;40.80;100419.68;105258;1257;61359;-57
2023/06/20 09:40:29;;;;;;;13.60;11.80;;;;;;;28.66;40.28;100414.08;105097;1260;64211;-56
2023/06/20 09:42:57;;;;;;;13.60;11.00;;;;;;;28.75;40.43;100416.13;105122;1264;60458;-56
2023/06/20 09:45:25;;;;;;;16.00;11.60;;;;;;;28.86;40.31;100412.21;105229;1262;60505;-57
2023/06/20 09:47:53;;;;;;;13.70;11.90;;;;;;;29.00;40.12;100415.98;105220;1262;64964;-57
2023/06/20 09:50:20;;;;;;;15.90;10.90;;;;;;;29.13;39.60;100412.25;105206;1260;61361;-58
2023/06/20 09:53:01;;;;;;;11.40;10.20;;;;;;;29.23;38.85;100410.01;104938;1262;63769;-55
2023/06/20 09:55:28;;;;;;;16.70;11.20;;;;;;;29.30;38.57;100406.37;108836;1257;58294;-58
2023/06/20 09:57:57;;;;;;;12.60;10.90;;;;;;;29.34;38.20;100406.00;106808;1262;60403;-56
2023/06/20 10:00:27;;;;;;;13.50;11.20;;;;;;;29.38;38.80;100404.92;105059;1257;64874;-59
2023/06/20 10:03:00;;;;;;;14.00;11.10;;;;;;;29.46;38.97;100404.05;105177;1262;62539;-57
2023/06/20 10:05:28;;;;;;;12.20;9.60;;;;;;;29.52;36.75;100398.35;105142;1259;63725;-57
2023/06/20 10:07:57;;;;;;;10.20;8.20;;;;;;;29.57;35.53;100402.77;105215;1262;60655;-56
2023/06/20 10:10:26;;;;;;;10.10;8.20;;;;;;;29.61;33.59;100401.14;105289;1262;60402;-57
2023/06/20 10:12:54;;;;;;;10.40;8.20;;;;;;;29.64;33.19;100397.93;105210;1258;64958;-57
2023/06/20 10:15:22;;;;;;;10.70;8.60;;;;;;;29.70;33.08;100391.23;105048;1260;61327;-56
2023/06/20 10:17:49;;;;;;;10.80;8.60;;;;;;;29.79;32.75;100397.03;105112;1260;63801;-56
2023/06/20 10:20:27;;;;;;;10.30;8.80;;;;;;;29.86;32.26;100398.80;105119;1260;60546;-56
2023/06/20 10:22:58;;;;;;;10.70;8.50;;;;;;;29.88;31.54;100399.64;105193;1263;60448;-58
2023/06/20 10:25:26;;;;;;;9.80;8.20;;;;;;;29.87;31.13;100399.41;105246;1258;63619;-59
2023/06/20 10:28:04;;;;;;;9.80;8.50;;;;;;;29.90;31.24;100393.11;105275;1261;61812;-56
2023/06/20 10:30:53;;;;;;;11.20;9.30;;;;;;;29.99;32.04;100395.61;105186;1259;62524;-59
2023/06/20 10:33:28;;;;;;;10.60;9.00;;;;;;;30.09;32.45;100391.84;104978;1263;60482;-56
2023/06/20 10:36:05;;;;;;;12.00;8.50;;;;;;;30.18;33.27;100385.75;105318;1262;62349;-57
2023/06/20 10:38:37;;;;;;;10.30;9.10;;;;;;;30.25;33.31;100385.02;105025;1264;64993;-54
2023/06/20 10:41:12;;;;;;;15.20;9.40;;;;;;;30.23;33.08;100391.02;105001;1262;61542;-55
2023/06/20 10:43:49;;;;;;;11.90;9.30;;;;;;;30.18;32.72;100387.06;104955;1260;62667;-56
2023/06/20 10:46:17;;;;;;;11.70;10.20;;;;;;;30.17;32.76;100387.09;105146;1265;60449;-56
2023/06/20 10:48:45;;;;;;;11.80;10.40;;;;;;;30.21;32.88;100383.02;105191;1260;60556;-55
2023/06/20 10:51:13;;;;;;;10.90;9.10;;;;;;;30.26;32.27;100381.89;105169;1263;65035;-56
2023/06/20 10:53:40;;;;;;;10.80;9.20;;;;;;;30.29;32.49;100385.92;105078;1262;61353;-54
2023/06/20 10:56:08;;;;;;;10.80;9.40;;;;;;;30.36;32.92;100385.27;105110;1260;63771;-55
2023/06/20 10:58:35;;;;;;;11.10;9.00;;;;;;;30.47;32.95;100375.96;105179;1257;62028;-56
2023/06/20 11:01:03;;;;;;;11.20;9.00;;;;;;;30.62;32.28;100374.86;104940;1257;60631;-56
2023/06/20 11:03:30;;;;;;;11.00;8.90;;;;;;;30.78;32.05;100372.08;105127;1262;75938;-57
2023/06/20 11:05:58;;;;;;;10.20;8.40;;;;;;;30.95;32.04;100370.13;105149;1257;61499;-56
2023/06/20 11:08:26;;;;;;;11.40;8.60;;;;;;;31.12;32.04;100370.44;105162;1263;63891;-57
2023/06/20 11:10:54;;;;;;;12.20;9.80;;;;;;;31.30;32.09;100364.85;105352;1257;61164;-57
2023/06/20 11:13:23;;;;;;;12.00;9.50;;;;;;;31.40;32.32;100359.82;105228;1257;60569;-62
2023/06/20 11:15:51;;;;;;;12.30;9.30;;;;;;;31.44;30.88;100355.86;105238;1262;65419;-58
2023/06/20 11:18:19;;;;;;;10.20;7.90;;;;;;;31.50;30.78;100357.33;105213;1262;60459;-56
2023/06/20 11:20:46;;;;;;;12.10;9.10;;;;;;;31.64;30.39;100353.23;104904;1263;74561;-61
2023/06/20 11:23:14;;;;;;;9.50;8.00;;;;;;;31.83;30.38;100349.73;105072;1262;60483;-56
2023/06/20 11:25:42;;;;;;;9.30;8.20;;;;;;;32.02;30.95;100347.75;105104;1262;60594;-59